Terminal Aerodrome Forecast
Issued by NWS Duluth, MN

Home | Current Version | Previous Version | Text Only | Print | Product List | Glossary On
Versions: 1 2 3 4 5 6 7 8 9 10 11 12 13 14 15 16 17 18 19 20 21 22 23 24 25 26 27 28 29 30 31 32 33 34 35 36 37 38 39 40 41 42 43 44 45 46
000
FTUS43 KDLH 191000 AAA
TAFDLH
TAF AMD
KDLH 191011Z 1910/2006 00000KT P6SM BKN004 OVC011
      TEMPO 1910/1912 1/4SM FG VV002
     FM191200 VRB02KT 3SM BR OVC011
     FM191600 VRB03KT P6SM OVC045
     FM191900 VRB04KT P6SM VCSH OVC035
     FM200300 09005KT 5SM BR OVC003=

USA.gov is the U.S. government's official web portal to all federal, state and local government web resources and services.